Time;durP1;ratioP1;P1;durP2;ratioP2;P2;SDS_P1;SDS_P2;PMS_P1;PMS_P2;Temp;Humidity;BMP_temperature;BMP_pressure;BME280_temperature;BME280_humidity;BME280_pressure;Samples;Min_cycle;Max_cycle;Signal;HPM_P1;HPM_P2
2023/03/29 00:00:24;;;;;;;3.70;3.13;;;;;;;9.92;45.02;99844.28;10352275;28;20232;-69
2023/03/29 00:05:26;;;;;;;4.63;3.37;;;;;;;10.08;45.01;99854.00;10348056;28;21642;-69
2023/03/29 00:10:27;;;;;;;3.50;3.17;;;;;;;11.08;43.40;99841.31;10349356;28;20289;-69
2023/03/29 00:15:29;;;;;;;4.90;2.80;;;;;;;9.90;44.42;99840.94;10359654;28;20234;-69
2023/03/29 00:20:30;;;;;;;4.47;3.30;;;;;;;11.43;42.86;99820.91;10359358;28;20233;-69
2023/03/29 00:25:32;;;;;;;3.93;3.57;;;;;;;11.84;42.63;99827.56;10361033;28;20233;-69
2023/03/29 00:30:34;;;;;;;3.30;3.00;;;;;;;9.92;46.55;99872.81;10361632;28;20246;-69
2023/03/29 00:35:38;;;;;;;5.13;3.33;;;;;;;9.75;46.12;99832.84;10355429;28;20611;-69
2023/03/29 00:40:42;;;;;;;3.20;2.90;;;;;;;12.23;43.38;99831.59;10356162;28;20233;-69
2023/03/29 00:45:44;;;;;;;3.07;2.77;;;;;;;12.15;42.88;99839.81;10356151;28;20235;-69
2023/03/29 00:50:53;;;;;;;3.30;3.00;;;;;;;11.60;44.20;99842.94;10359782;28;20250;-69
2023/03/29 00:56:01;;;;;;;5.87;3.50;;;;;;;11.33;44.61;99857.91;10351372;28;20240;-70
2023/03/29 01:01:09;;;;;;;5.50;3.90;;;;;;;9.39;47.36;99787.16;10356234;28;20234;-69
2023/03/29 01:06:14;;;;;;;4.83;4.37;;;;;;;9.54;48.05;99837.97;10352956;28;20250;-69
2023/03/29 01:11:23;;;;;;;6.37;5.00;;;;;;;10.33;46.55;99825.19;10359477;28;20238;-69
2023/03/29 01:16:29;;;;;;;4.37;3.80;;;;;;;10.33;45.87;99808.31;10352481;28;20349;-69
2023/03/29 01:21:38;;;;;;;4.30;3.90;;;;;;;8.87;48.69;99763.75;10355424;28;20235;-69
2023/03/29 01:26:56;;;;;;;5.27;4.20;;;;;;;9.04;48.69;99821.38;10355858;28;20674;-69
2023/03/29 01:32:12;;;;;;;4.20;3.90;;;;;;;10.39;45.61;99804.91;10356635;28;20233;-69
2023/03/29 01:37:37;;;;;;;6.77;4.77;;;;;;;12.18;43.15;99775.03;10358562;28;20236;-70
2023/03/29 01:42:56;;;;;;;5.80;4.97;;;;;;;11.07;43.60;99776.22;10353112;28;20237;-69
2023/03/29 01:48:01;;;;;;;8.03;4.97;;;;;;;12.71;42.21;99804.09;10360783;28;20237;-70
2023/03/29 01:53:26;;;;;;;5.57;4.97;;;;;;;12.60;41.93;99800.09;10348389;28;20291;-69
2023/03/29 01:58:32;;;;;;;6.67;4.70;;;;;;;12.01;42.63;99790.56;10357002;28;20221;-69
2023/03/29 02:03:41;;;;;;;5.03;4.40;;;;;;;11.07;44.09;99797.66;10350585;28;20236;-68
2023/03/29 02:08:44;;;;;;;6.03;5.07;;;;;;;12.28;42.47;99777.38;10351555;28;20838;-69
2023/03/29 02:13:45;;;;;;;8.10;5.73;;;;;;;10.52;45.05;99807.78;10358889;28;20244;-69
2023/03/29 02:18:49;;;;;;;7.60;4.10;;;;;;;9.88;46.79;99810.88;10357964;28;20230;-69
2023/03/29 02:23:53;;;;;;;4.10;3.70;;;;;;;9.17;47.05;99756.75;10346586;28;20744;-69
2023/03/29 02:28:55;;;;;;;5.63;3.60;;;;;;;8.78;48.13;99773.59;10352678;28;20634;-69
2023/03/29 02:34:09;;;;;;;5.27;3.93;;;;;;;8.54;48.01;99775.34;10346792;28;20291;-70
2023/03/29 02:39:14;;;;;;;4.00;3.60;;;;;;;8.62;47.31;99788.66;10356078;28;20236;-68
2023/03/29 02:44:20;;;;;;;5.33;3.77;;;;;;;7.67;49.37;99783.06;10352864;28;20712;-69
2023/03/29 02:49:22;;;;;;;4.13;3.60;;;;;;;7.55;49.69;99778.03;10356193;28;20241;-69
2023/03/29 02:54:28;;;;;;;4.37;3.97;;;;;;;8.12;48.94;99789.75;10354065;28;20642;-69
2023/03/29 02:59:32;;;;;;;3.60;3.30;;;;;;;7.97;49.11;99788.75;10349505;28;20265;-69
2023/03/29 03:04:34;;;;;;;4.70;4.30;;;;;;;7.76;49.67;99787.38;10331804;28;20724;-68
2023/03/29 03:09:36;;;;;;;4.57;4.10;;;;;;;6.63;51.47;99747.81;10321718;28;20235;-68
2023/03/29 03:14:38;;;;;;;5.63;4.67;;;;;;;6.49;52.35;99769.69;10354096;28;20283;-72
2023/03/29 03:19:40;;;;;;;5.00;4.57;;;;;;;5.89;53.87;99781.88;10356368;28;20769;-69
2023/03/29 03:24:42;;;;;;;5.13;4.70;;;;;;;6.21;53.03;99775.16;10359358;28;20232;-68
2023/03/29 03:29:43;;;;;;;6.93;5.83;;;;;;;6.17;53.67;99774.63;10354987;28;20247;-69
2023/03/29 03:34:45;;;;;;;5.00;4.50;;;;;;;6.31;53.63;99793.66;10355409;28;20229;-63
2023/03/29 03:39:47;;;;;;;5.03;4.53;;;;;;;5.60;54.57;99775.00;10355722;28;20738;-69
2023/03/29 03:44:49;;;;;;;5.47;4.90;;;;;;;7.69;50.78;99765.88;10357713;28;20229;-69
2023/03/29 03:49:50;;;;;;;5.77;4.90;;;;;;;6.98;51.95;99807.19;10361343;28;20229;-70
2023/03/29 03:54:52;;;;;;;5.10;4.57;;;;;;;6.15;52.91;99781.94;10364286;28;20230;-69
2023/03/29 03:59:55;;;;;;;5.60;5.10;;;;;;;6.73;51.93;99793.72;10366629;28;20240;-70
2023/03/29 04:04:56;;;;;;;4.70;4.10;;;;;;;7.47;50.92;99782.53;10358088;28;20273;-69
2023/03/29 04:09:58;;;;;;;4.60;4.10;;;;;;;8.34;48.22;99817.53;10360458;28;20236;-70
2023/03/29 04:15:00;;;;;;;6.97;4.10;;;;;;;9.59;47.16;99784.84;10365671;28;20236;-70
2023/03/29 04:20:08;;;;;;;4.53;3.73;;;;;;;10.36;44.78;99799.09;10365012;28;20372;-69
2023/03/29 04:25:10;;;;;;;5.57;3.70;;;;;;;11.45;43.86;99834.13;10359879;28;20320;-69
2023/03/29 04:30:12;;;;;;;4.73;4.10;;;;;;;12.27;42.12;99854.34;10362111;28;20311;-69
2023/03/29 04:35:14;;;;;;;5.33;4.83;;;;;;;12.10;42.54;99845.75;10363905;28;20747;-70
2023/03/29 04:40:18;;;;;;;5.83;5.23;;;;;;;11.50;43.50;99826.34;10363423;28;20240;-69
2023/03/29 04:45:20;;;;;;;9.57;5.90;;;;;;;10.80;43.66;99836.63;10364426;28;20606;-70
2023/03/29 04:50:21;;;;;;;6.10;4.93;;;;;;;11.80;42.48;99863.81;10360339;28;20240;-70
2023/03/29 04:55:23;;;;;;;5.00;4.20;;;;;;;11.84;43.06;99864.25;10359353;28;20241;-70
2023/03/29 05:00:26;;;;;;;5.93;5.30;;;;;;;10.60;44.15;99868.41;10358743;28;20874;-69
2023/03/29 05:05:28;;;;;;;7.13;4.77;;;;;;;11.37;43.16;99880.63;10363076;28;20235;-69
2023/03/29 05:10:29;;;;;;;5.40;4.97;;;;;;;11.18;43.29;99871.31;10364023;28;20241;-69
2023/03/29 05:15:31;;;;;;;7.20;4.50;;;;;;;10.58;44.78;99910.59;10360053;28;20225;-69
2023/03/29 05:20:33;;;;;;;6.50;4.47;;;;;;;10.74;43.93;99871.31;10362166;28;20239;-69
2023/03/29 05:25:34;;;;;;;5.47;4.60;;;;;;;12.18;42.61;99901.94;10363024;28;20721;-69
2023/03/29 05:30:36;;;;;;;5.00;4.47;;;;;;;11.29;42.89;99871.84;10357014;28;20797;-69
2023/03/29 05:35:38;;;;;;;6.13;4.60;;;;;;;9.85;45.46;99894.09;10358009;28;20237;-69
2023/03/29 05:40:40;;;;;;;7.03;5.50;;;;;;;10.82;44.94;99895.34;10358410;28;20226;-70
2023/03/29 05:45:42;;;;;;;5.37;4.63;;;;;;;9.66;46.01;99911.38;10360362;28;20279;-69
2023/03/29 05:50:48;;;;;;;6.40;5.33;;;;;;;9.66;45.86;99891.84;10357786;28;20736;-70
2023/03/29 05:55:50;;;;;;;6.33;4.30;;;;;;;10.01;46.24;99916.41;10359996;28;20232;-70
2023/03/29 06:00:52;;;;;;;5.67;4.90;;;;;;;10.21;45.90;99909.56;10361447;28;20241;-69
2023/03/29 06:05:57;;;;;;;7.37;5.03;;;;;;;9.56;46.53;99908.91;10358996;28;20645;-70
2023/03/29 06:11:05;;;;;;;6.07;5.00;;;;;;;9.26;47.25;99878.50;10359351;28;20582;-70
2023/03/29 06:16:09;;;;;;;6.73;4.80;;;;;;;9.98;46.65;99896.19;10358327;28;20237;-70
2023/03/29 06:21:11;;;;;;;6.77;4.53;;;;;;;9.99;46.43;99897.84;10359235;28;20240;-69
2023/03/29 06:26:14;;;;;;;5.10;4.00;;;;;;;10.01;46.35;99884.31;10352684;28;20248;-70
2023/03/29 06:31:16;;;;;;;6.47;4.60;;;;;;;10.18;45.55;99851.09;10349411;28;20229;-69
2023/03/29 06:36:19;;;;;;;6.70;4.87;;;;;;;9.89;46.02;99900.75;10356933;28;20309;-69
2023/03/29 06:41:20;;;;;;;7.20;4.47;;;;;;;10.05;45.70;99862.38;10350707;28;20230;-70
2023/03/29 06:46:22;;;;;;;6.37;4.40;;;;;;;8.77;47.58;99874.13;10360893;28;20235;-70
2023/03/29 06:51:24;;;;;;;8.40;4.10;;;;;;;10.11;46.64;99883.06;10359575;28;20789;-69
2023/03/29 06:56:25;;;;;;;6.70;5.23;;;;;;;10.65;46.07;99900.00;10358539;28;20739;-69
2023/03/29 07:01:27;;;;;;;5.97;5.10;;;;;;;10.72;45.38;99900.91;10351440;28;20244;-70
2023/03/29 07:06:29;;;;;;;7.73;5.97;;;;;;;11.97;43.99;99944.84;10356513;28;20345;-70
2023/03/29 07:11:35;;;;;;;8.10;5.07;;;;;;;11.26;44.39;99910.56;10357345;28;20239;-71
2023/03/29 07:16:36;;;;;;;8.23;5.87;;;;;;;10.40;46.04;99905.56;10355639;28;20656;-71
2023/03/29 07:21:38;;;;;;;7.37;4.67;;;;;;;12.15;44.22;99955.97;10362136;28;20260;-70
2023/03/29 07:26:40;;;;;;;5.73;4.53;;;;;;;11.36;45.35;99924.50;10367940;28;20465;-70
2023/03/29 07:32:01;;;;;;;7.00;4.70;;;;;;;11.51;45.47;99902.25;10365241;28;20232;-70
2023/03/29 07:37:02;;;;;;;7.40;4.90;;;;;;;12.39;44.61;99934.34;10363487;28;20271;-70
2023/03/29 07:42:05;;;;;;;7.60;5.13;;;;;;;13.74;41.76;99983.44;10370529;28;20615;-69
2023/03/29 07:47:07;;;;;;;5.03;3.90;;;;;;;11.56;45.26;99913.22;10367008;28;20236;-69
2023/03/29 07:52:08;;;;;;;5.47;4.13;;;;;;;10.04;48.79;99934.72;10362718;28;20232;-69
2023/03/29 07:57:10;;;;;;;5.03;4.17;;;;;;;11.33;46.66;99924.88;10362679;28;20614;-69
2023/03/29 08:02:12;;;;;;;5.07;4.10;;;;;;;11.83;46.16;99916.22;10357771;28;20249;-69
2023/03/29 08:07:14;;;;;;;5.90;3.97;;;;;;;12.23;45.02;99917.44;10364042;28;20610;-69
2023/03/29 08:12:19;;;;;;;5.10;4.00;;;;;;;12.85;42.58;99932.03;10360224;28;20329;-69
2023/03/29 08:17:21;;;;;;;4.93;4.30;;;;;;;12.95;42.74;99918.25;10365333;28;20251;-70
2023/03/29 08:22:22;;;;;;;4.47;3.73;;;;;;;12.36;42.73;99871.94;10364651;28;20240;-69
2023/03/29 08:27:25;;;;;;;6.23;4.27;;;;;;;13.19;42.23;99906.19;10362429;28;20773;-69
2023/03/29 08:32:26;;;;;;;4.47;4.03;;;;;;;11.61;44.45;99881.31;10354779;28;20236;-70
2023/03/29 08:37:29;;;;;;;5.40;4.40;;;;;;;12.19;44.24;99894.72;10363127;28;20616;-69
2023/03/29 08:42:51;;;;;;;5.97;3.60;;;;;;;11.71;44.33;99916.72;10360299;28;20244;-70
2023/03/29 08:47:57;;;;;;;4.80;3.77;;;;;;;12.48;43.22;99884.88;10360387;28;20241;-69
2023/03/29 08:53:04;;;;;;;4.10;3.63;;;;;;;12.14;43.06;99891.78;10357364;28;20750;-70
2023/03/29 08:58:13;;;;;;;6.53;5.23;;;;;;;12.95;42.15;99883.34;10359099;28;20233;-69
2023/03/29 09:03:22;;;;;;;4.83;3.70;;;;;;;11.66;42.71;99889.66;10360293;28;20248;-70
2023/03/29 09:08:25;;;;;;;5.33;3.53;;;;;;;12.71;41.81;99881.97;10359285;28;20240;-70
2023/03/29 09:13:48;;;;;;;3.90;3.20;;;;;;;12.82;41.53;99889.47;10360738;28;20229;-70
2023/03/29 09:18:55;;;;;;;5.07;3.47;;;;;;;13.67;40.96;99863.22;10354931;28;20951;-69
2023/03/29 09:24:17;;;;;;;5.37;3.50;;;;;;;14.37;39.77;99895.22;10358391;28;20236;-70
2023/03/29 09:29:34;;;;;;;6.90;4.13;;;;;;;15.29;38.29;99910.63;10357120;28;20244;-70
2023/03/29 09:34:43;;;;;;;6.40;3.87;;;;;;;14.07;39.31;99823.97;10358545;28;20240;-70
2023/03/29 09:39:44;;;;;;;4.43;3.23;;;;;;;14.00;39.13;99837.41;10359534;28;20229;-69
2023/03/29 09:44:56;;;;;;;5.77;3.57;;;;;;;15.05;39.15;99867.19;10357350;28;20233;-70
2023/03/29 09:50:10;;;;;;;3.60;2.80;;;;;;;14.33;38.68;99847.38;10356608;28;20720;-70
2023/03/29 09:55:32;;;;;;;4.10;3.13;;;;;;;13.04;40.15;99803.41;10358126;28;20221;-70
2023/03/29 10:00:35;;;;;;;3.77;2.73;;;;;;;15.03;38.41;99841.47;10358366;28;20696;-70
2023/03/29 10:05:37;;;;;;;6.03;3.10;;;;;;;14.71;38.67;99822.47;10359760;28;20238;-70
2023/03/29 10:10:38;;;;;;;4.27;2.90;;;;;;;14.81;38.79;99792.41;10363021;28;20233;-70
2023/03/29 10:15:40;;;;;;;6.10;4.50;;;;;;;15.02;38.79;99792.16;10359601;28;20671;-70
2023/03/29 10:20:42;;;;;;;4.60;2.90;;;;;;;15.17;38.47;99737.13;10355987;28;20612;-69
2023/03/29 10:25:44;;;;;;;4.53;2.50;;;;;;;15.78;38.36;99763.50;10357000;28;20248;-69
2023/03/29 10:30:53;;;;;;;2.87;2.30;;;;;;;14.78;40.04;99735.22;10359237;28;20237;-70
2023/03/29 10:35:56;;;;;;;4.07;2.43;;;;;;;14.30;39.20;99724.81;10353719;28;20244;-69
2023/03/29 10:41:11;;;;;;;5.67;2.77;;;;;;;15.53;38.20;99733.78;10348891;28;20369;-70
2023/03/29 10:46:32;;;;;;;3.47;2.50;;;;;;;15.17;39.55;99708.31;10346949;28;20231;-70
2023/03/29 10:51:34;;;;;;;4.03;2.47;;;;;;;15.20;39.71;99691.72;10357065;28;20749;-70
2023/03/29 10:56:41;;;;;;;4.23;2.27;;;;;;;15.75;38.36;99715.38;10352367;28;20221;-70
2023/03/29 11:06:46;;;;;;;3.33;2.37;;;;;;;12.59;42.28;99744.78;10436776;28;21433;-70
2023/03/29 11:12:08;;;;;;;4.27;2.53;;;;;;;13.80;40.77;99706.44;10312984;28;20276;-69
2023/03/29 11:17:23;;;;;;;4.03;2.80;;;;;;;13.90;40.12;99711.38;10348403;28;21017;-69
2023/03/29 11:22:46;;;;;;;3.83;2.37;;;;;;;14.26;40.79;99706.63;10345807;28;20233;-69
2023/03/29 11:27:52;;;;;;;5.07;2.73;;;;;;;13.66;41.13;99713.66;10362445;28;20963;-69
2023/03/29 11:33:55;;;;;;;3.00;2.63;;;;;;;14.39;40.09;99667.03;10341872;28;20249;-70
2023/03/29 11:39:10;;;;;;;3.07;2.63;;;;;;;14.31;39.64;99698.75;10294464;28;20249;-70
2023/03/29 11:44:19;;;;;;;4.10;2.70;;;;;;;14.62;40.00;99689.91;10345693;28;20244;-69
2023/03/29 11:49:41;;;;;;;4.80;2.67;;;;;;;14.68;39.30;99682.88;10351340;28;20641;-69
2023/03/29 11:55:02;;;;;;;3.23;2.90;;;;;;;14.22;40.45;99646.97;10337558;28;20779;-72
2023/03/29 12:00:29;;;;;;;3.13;2.63;;;;;;;14.35;40.57;99697.25;10357202;28;20373;-69
2023/03/29 12:05:37;;;;;;;4.50;2.63;;;;;;;13.70;40.51;99679.13;10350169;28;20268;-70
2023/03/29 12:11:23;;;;;;;3.57;2.63;;;;;;;14.46;40.50;99696.63;10335165;28;20238;-69
2023/03/29 12:16:36;;;;;;;5.83;2.83;;;;;;;14.07;41.49;99662.56;10316560;28;20233;-70
2023/03/29 12:21:40;;;;;;;8.17;3.10;;;;;;;15.31;40.77;99655.97;10312496;28;20709;-69
2023/03/29 12:26:56;;;;;;;5.30;2.53;;;;;;;14.46;41.84;99658.06;10327024;28;20748;-69
2023/03/29 12:32:36;;;;;;;3.67;2.60;;;;;;;14.42;42.93;99673.84;10317695;28;20237;-68
2023/03/29 12:38:15;;;;;;;4.90;1.90;;;;;;;13.39;43.41;99650.19;10320043;28;20229;-70
2023/03/29 12:43:37;;;;;;;4.93;2.17;;;;;;;13.85;43.91;99668.13;10327936;28;20721;-69
2023/03/29 12:48:41;;;;;;;6.73;2.10;;;;;;;15.27;42.43;99667.44;10312213;28;20341;-69
2023/03/29 12:53:46;;;;;;;4.97;2.60;;;;;;;12.73;46.60;99603.38;10312679;28;20261;-70
2023/03/29 12:59:24;;;;;;;4.43;2.73;;;;;;;14.09;47.12;99628.19;10317826;28;20274;-68
2023/03/29 13:04:50;;;;;;;3.03;2.17;;;;;;;12.82;49.57;99620.97;10312093;28;20265;-69
2023/03/29 13:10:02;;;;;;;4.10;2.87;;;;;;;12.23;50.61;99581.28;10318606;28;20292;-69
2023/03/29 13:15:22;;;;;;;3.47;2.70;;;;;;;12.94;50.16;99613.13;10315707;28;20222;-72
2023/03/29 13:20:51;;;;;;;3.00;2.50;;;;;;;13.25;49.60;99601.78;10319986;28;20230;-70
2023/03/29 13:25:52;;;;;;;5.17;2.70;;;;;;;13.72;48.82;99591.03;10320768;28;20234;-68
2023/03/29 13:30:58;;;;;;;4.33;2.87;;;;;;;13.78;50.18;99594.72;10312601;28;20926;-71
2023/03/29 13:36:31;;;;;;;4.03;2.63;;;;;;;12.42;50.17;99604.69;10281349;28;20222;-68
2023/03/29 13:41:39;;;;;;;5.43;3.00;;;;;;;13.26;49.11;99581.94;10319575;28;20238;-69
2023/03/29 13:46:42;;;;;;;6.60;3.07;;;;;;;13.67;48.00;99575.50;10317661;28;20242;-72
2023/03/29 13:52:12;;;;;;;3.60;2.93;;;;;;;13.55;49.26;99609.44;10317158;28;20739;-69
2023/03/29 13:57:20;;;;;;;9.47;6.77;;;;;;;15.51;45.73;99634.22;10311801;28;20233;-69
2023/03/29 14:02:31;;;;;;;3.50;2.93;;;;;;;15.86;45.38;99641.84;10313750;28;20242;-70
2023/03/29 14:07:37;;;;;;;4.17;2.57;;;;;;;15.21;44.83;99490.41;10314789;28;20617;-70
2023/03/29 14:12:40;;;;;;;3.23;2.40;;;;;;;15.56;45.87;99546.50;10313687;28;20229;-71
2023/03/29 14:17:45;;;;;;;2.90;2.40;;;;;;;17.75;41.96;99532.72;10316670;28;20608;-69
2023/03/29 14:22:48;;;;;;;5.07;3.07;;;;;;;16.25;42.71;99469.66;10311853;28;20235;-69
2023/03/29 14:27:50;;;;;;;4.30;2.57;;;;;;;15.55;43.50;99445.06;10314444;28;20233;-69
2023/03/29 14:32:52;;;;;;;3.83;2.60;;;;;;;17.36;42.26;99465.63;10315378;28;20812;-69
2023/03/29 14:37:54;;;;;;;3.67;2.63;;;;;;;17.92;41.75;99469.47;10309487;28;20861;-68
2023/03/29 14:42:56;;;;;;;6.77;2.73;;;;;;;16.33;43.55;99402.91;10315580;28;20718;-69
2023/03/29 14:47:59;;;;;;;5.03;2.77;;;;;;;17.07;42.98;99454.69;10316061;28;20230;-69
2023/03/29 14:53:02;;;;;;;4.00;2.67;;;;;;;16.71;42.16;99401.69;10309100;28;20233;-69
2023/03/29 14:58:18;;;;;;;4.97;3.03;;;;;;;17.52;41.99;99431.59;10312974;28;20258;-69
2023/03/29 15:03:25;;;;;;;3.20;2.50;;;;;;;17.86;42.17;99432.56;10314120;28;20241;-69
2023/03/29 15:08:33;;;;;;;3.17;2.60;;;;;;;16.48;41.57;99389.78;10312875;28;20233;-68
2023/03/29 15:13:40;;;;;;;3.43;2.33;;;;;;;16.68;40.85;99391.34;10311511;28;20284;-68
2023/03/29 15:18:44;;;;;;;5.10;2.70;;;;;;;18.27;38.74;99444.16;10309542;28;20231;-68
2023/03/29 15:23:51;;;;;;;3.20;2.40;;;;;;;17.60;39.36;99431.22;10309461;28;20267;-68
2023/03/29 15:29:01;;;;;;;3.90;2.20;;;;;;;17.92;37.77;99441.59;10315303;28;20233;-69
2023/03/29 15:34:05;;;;;;;4.90;2.47;;;;;;;17.23;39.07;99399.06;10327961;23;20228;-35
2023/03/29 15:39:15;;;;;;;2.40;2.20;;;;;;;17.41;39.21;99424.31;10382795;28;20241;-35
2023/03/29 15:44:21;;;;;;;3.67;2.43;;;;;;;17.65;39.21;99407.00;10389402;28;20232;-35
2023/03/29 15:49:23;;;;;;;4.73;2.20;;;;;;;17.72;38.41;99372.50;10383306;28;20229;-35
2023/03/29 15:54:27;;;;;;;4.10;2.37;;;;;;;17.03;38.63;99375.13;10391760;28;20228;-35
2023/03/29 15:59:30;;;;;;;6.27;2.70;;;;;;;16.98;39.63;99353.41;10391195;28;20225;-36
2023/03/29 16:05:25;;;;;;;3.53;2.37;;;;;;;18.64;37.71;99399.50;10375410;22;20237;-87
2023/03/29 16:11:51;;;;;;;4.43;2.47;;;;;;;17.44;39.69;99342.69;10324991;28;20229;-88
2023/03/29 16:31:01;;;;;;;3.70;2.90;;;;;;;17.04;38.95;99279.47;10158792;29;20628;-86
2023/03/29 16:37:04;;;;;;;3.40;2.77;;;;;;;18.83;37.81;99346.69;10090614;29;20728;-87
2023/03/29 16:42:33;;;;;;;5.33;3.60;;;;;;;18.27;37.61;99308.72;10341870;28;20233;-88
2023/03/29 16:48:50;;;;;;;7.40;5.40;;;;;;;17.81;38.26;99293.63;10317956;28;20247;-86
2023/03/29 16:54:17;;;;;;;8.60;5.23;;;;;;;17.95;38.32;99272.47;10342876;28;20286;-85
2023/03/29 16:59:56;;;;;;;10.57;7.30;;;;;;;17.41;39.52;99237.69;10331337;28;20842;-88
2023/03/29 18:10:31;;;;;;;10.90;5.13;;;;;;;18.85;38.10;99235.31;10494122;27;20757;-73
2023/03/29 18:15:32;;;;;;;5.93;3.77;;;;;;;18.24;38.70;99187.38;10471660;28;20235;-74
2023/03/29 18:20:34;;;;;;;18.23;9.67;;;;;;;18.18;38.39;99203.78;10452773;28;20231;-73
2023/03/29 18:25:36;;;;;;;19.53;10.50;;;;;;;17.67;39.24;99195.72;10451747;28;20653;-74
2023/03/29 18:30:39;;;;;;;12.80;8.63;;;;;;;18.07;38.73;99195.53;10456231;28;20444;-74
2023/03/29 18:35:47;;;;;;;7.93;4.63;;;;;;;17.77;38.96;99187.78;10459390;28;20992;-75
2023/03/29 18:40:49;;;;;;;12.43;5.73;;;;;;;17.73;38.37;99192.84;10463200;28;20330;-74
2023/03/29 18:45:50;;;;;;;12.83;7.03;;;;;;;16.85;40.06;99188.81;10454687;28;20228;-74
2023/03/29 18:50:55;;;;;;;9.67;5.93;;;;;;;18.78;37.37;99205.69;10455809;28;20604;-73
2023/03/29 18:55:56;;;;;;;13.63;7.90;;;;;;;17.77;39.21;99182.34;10458667;28;20232;-73
2023/03/29 19:01:03;;;;;;;25.83;17.73;;;;;;;16.28;43.75;99214.66;10464518;28;20223;-74
2023/03/29 19:06:06;;;;;;;14.10;9.53;;;;;;;16.71;42.62;99209.88;10453629;28;20250;-73
2023/03/29 19:11:10;;;;;;;12.57;7.40;;;;;;;17.25;41.25;99215.81;10458469;28;20239;-73
2023/03/29 19:16:11;;;;;;;6.67;3.87;;;;;;;17.42;38.98;99167.16;10460055;28;20358;-74
2023/03/29 19:21:13;;;;;;;7.43;2.80;;;;;;;16.07;40.40;99199.84;10436969;28;20240;-72
2023/03/29 19:26:15;;;;;;;7.87;3.23;;;;;;;16.15;40.06;99222.97;10425658;28;20261;-73
2023/03/29 19:31:17;;;;;;;6.23;3.40;;;;;;;17.32;38.76;99189.41;10423314;28;20240;-74
2023/03/29 19:36:18;;;;;;;4.47;3.60;;;;;;;15.70;40.38;99181.97;10431504;28;20228;-73
2023/03/29 19:41:20;;;;;;;5.73;3.57;;;;;;;15.13;41.14;99184.28;10412785;28;20236;-74
2023/03/29 19:46:22;;;;;;;8.53;4.80;;;;;;;15.45;40.83;99214.53;10432533;28;20314;-72
2023/03/29 19:51:26;;;;;;;10.10;4.50;;;;;;;16.23;39.49;99220.72;10429401;28;20749;-72
2023/03/29 19:56:27;;;;;;;6.50;4.20;;;;;;;15.14;40.36;99188.66;10427175;28;20232;-74
2023/03/29 20:01:31;;;;;;;6.73;3.63;;;;;;;14.59;40.80;99159.91;10427599;28;20288;-74
2023/03/29 20:06:33;;;;;;;8.00;4.00;;;;;;;15.04;40.34;99185.69;10395278;28;20241;-73
2023/03/29 20:11:34;;;;;;;6.17;3.97;;;;;;;15.17;40.13;99190.03;10397613;28;20211;-74
2023/03/29 20:16:36;;;;;;;4.20;3.33;;;;;;;15.72;39.52;99210.59;10395373;28;20229;-71
2023/03/29 20:21:38;;;;;;;8.70;3.80;;;;;;;15.21;39.69;99183.16;10377096;28;20240;-72
2023/03/29 20:26:40;;;;;;;5.90;3.50;;;;;;;14.31;40.34;99145.13;10407096;28;20286;-74
2023/03/29 20:31:42;;;;;;;5.93;2.90;;;;;;;14.44;40.24;99157.59;10388978;28;20723;-71
2023/03/29 20:36:45;;;;;;;4.23;2.93;;;;;;;15.00;39.51;99171.84;10393038;28;20248;-72
2023/03/29 20:41:47;;;;;;;4.93;3.10;;;;;;;14.98;39.60;99167.72;10388861;28;20217;-74
2023/03/29 20:47:02;;;;;;;9.57;3.10;;;;;;;15.17;38.70;99181.94;10395380;28;20237;-74
2023/03/29 20:52:06;;;;;;;4.73;2.17;;;;;;;15.41;38.83;99174.78;10398101;28;20244;-73
2023/03/29 20:57:12;;;;;;;3.33;2.40;;;;;;;13.90;40.20;99090.06;10382112;28;20248;-73
2023/03/29 21:02:20;;;;;;;5.57;2.63;;;;;;;15.87;38.04;99133.53;10390088;28;20232;-73
2023/03/29 21:07:22;;;;;;;7.83;3.10;;;;;;;15.84;38.17;99171.81;10400526;28;20228;-73
2023/03/29 21:12:24;;;;;;;7.80;2.63;;;;;;;16.19;37.72;99138.56;10377120;28;20735;-74
2023/03/29 21:17:26;;;;;;;4.43;2.67;;;;;;;17.07;37.24;99170.88;10389874;28;20237;-74
2023/03/29 21:22:28;;;;;;;4.03;2.53;;;;;;;14.73;38.53;99101.34;10388880;28;20242;-74
2023/03/29 21:27:29;;;;;;;5.57;2.43;;;;;;;16.18;38.29;99155.84;10387898;28;20229;-73
2023/03/29 21:32:31;;;;;;;4.23;2.27;;;;;;;15.95;37.87;99126.16;10383291;28;20775;-73
2023/03/29 21:37:33;;;;;;;7.17;2.20;;;;;;;16.37;37.68;99145.72;10379667;23;20635;-36
2023/03/29 21:42:35;;;;;;;7.70;2.90;;;;;;;16.09;37.95;99148.31;10309518;28;20230;-38
2023/03/29 21:47:37;;;;;;;4.97;2.37;;;;;;;15.37;38.56;99112.41;10322689;23;20326;-69
2023/03/29 21:52:39;;;;;;;5.67;2.97;;;;;;;16.19;37.96;99130.47;10275302;28;20588;-69
2023/03/29 21:57:40;;;;;;;6.00;2.07;;;;;;;15.52;38.64;99120.03;10275446;28;20836;-68
2023/03/29 22:02:44;;;;;;;3.37;2.50;;;;;;;14.84;39.03;99075.50;10272010;28;20240;-70
2023/03/29 22:07:49;;;;;;;5.17;2.50;;;;;;;17.31;37.47;99128.31;10273313;28;20646;-69
2023/03/29 22:12:51;;;;;;;5.07;2.47;;;;;;;16.94;37.99;99117.91;10278398;28;20235;-69
2023/03/29 22:17:54;;;;;;;8.60;2.53;;;;;;;15.46;38.96;99099.41;10272953;28;20290;-68
2023/03/29 22:22:59;;;;;;;4.93;2.63;;;;;;;16.38;39.18;99136.56;10272887;28;20237;-69
2023/03/29 22:28:01;;;;;;;5.50;2.77;;;;;;;16.68;38.86;99132.00;10273927;28;20239;-69
2023/03/29 22:33:02;;;;;;;7.87;2.80;;;;;;;16.20;38.84;99118.63;10271826;28;20241;-69
2023/03/29 22:38:04;;;;;;;5.43;2.80;;;;;;;16.58;39.10;99113.72;10276491;28;20230;-70
2023/03/29 22:43:06;;;;;;;7.87;3.83;;;;;;;17.05;38.64;99124.34;10276340;28;20235;-70
2023/03/29 22:48:07;;;;;;;7.07;2.90;;;;;;;16.52;39.62;99090.41;10272933;28;20247;-70
2023/03/29 22:53:10;;;;;;;7.03;2.77;;;;;;;16.36;40.06;99118.97;10276290;28;20234;-71
2023/03/29 22:58:12;;;;;;;9.77;3.03;;;;;;;16.98;39.66;99116.38;10282149;28;20330;-67
2023/03/29 23:03:13;;;;;;;7.83;3.00;;;;;;;17.88;38.76;99116.50;10278840;28;20233;-67
2023/03/29 23:08:15;;;;;;;4.03;2.47;;;;;;;17.34;38.84;99062.94;10284645;28;20620;-67
2023/03/29 23:13:25;;;;;;;8.53;2.70;;;;;;;16.65;39.66;99082.00;10285841;28;20230;-67
2023/03/29 23:18:29;;;;;;;5.27;3.17;;;;;;;18.00;38.13;99091.19;10282108;28;20273;-67
2023/03/29 23:23:31;;;;;;;9.23;3.30;;;;;;;17.36;39.09;99079.72;10284340;28;20226;-67
2023/03/29 23:28:33;;;;;;;5.07;2.97;;;;;;;17.78;38.53;99061.41;10281276;28;20242;-70
2023/03/29 23:33:37;;;;;;;7.10;2.80;;;;;;;18.16;38.58;99082.19;10259852;28;20239;-67
2023/03/29 23:38:40;;;;;;;7.00;2.70;;;;;;;17.97;38.30;99018.63;10284395;28;20235;-67
2023/03/29 23:43:45;;;;;;;5.87;2.90;;;;;;;17.12;39.12;99056.63;10277215;28;20241;-68
2023/03/29 23:48:49;;;;;;;6.40;3.23;;;;;;;16.66;40.10;99074.72;10278827;28;20717;-67
2023/03/29 23:53:50;;;;;;;8.97;3.90;;;;;;;16.85;40.16;99045.59;10280096;28;20341;-70
2023/03/29 23:58:52;;;;;;;6.03;3.87;;;;;;;17.77;39.28;99043.56;10278171;28;20293;-67
